Time;durP1;ratioP1;P1;durP2;ratioP2;P2;SDS_P1;SDS_P2;PMS_P1;PMS_P2;Temp;Humidity;BMP_temperature;BMP_pressure;BME280_temperature;BME280_humidity;BME280_pressure;Samples;Min_cycle;Max_cycle;Signal;HPM_P1;HPM_P2
2024/02/09 00:00:10;;;;;;;9.68;3.78;;;7.90;99.90;;;;;;6303745;22;20019;-79
2024/02/09 00:02:44;;;;;;;10.88;3.45;;;7.90;99.90;;;;;;6300262;22;20019;-78
2024/02/09 00:05:17;;;;;;;6.78;3.25;;;7.80;99.90;;;;;;6305631;22;20027;-78
2024/02/09 00:07:52;;;;;;;8.65;3.10;;;7.90;99.90;;;;;;6166305;23;20643;-80
2024/02/09 00:10:24;;;;;;;9.15;3.33;;;8.00;99.90;;;;;;6211894;23;20004;-79
2024/02/09 00:13:04;;;;;;;9.25;3.85;;;7.90;99.90;;;;;;6237861;23;20036;-78
2024/02/09 00:15:34;;;;;;;10.15;3.05;;;7.90;99.90;;;;;;6214957;23;20052;-78
2024/02/09 00:18:03;;;;;;;8.60;3.17;;;7.90;99.90;;;;;;6238979;23;20084;-78
2024/02/09 00:20:33;;;;;;;7.30;3.63;;;7.90;99.90;;;;;;6237834;23;20021;-78
2024/02/09 00:23:08;;;;;;;8.35;2.92;;;7.90;99.90;;;;;;6239198;23;20021;-79
2024/02/09 00:25:49;;;;;;;6.18;2.45;;;7.90;99.90;;;;;;6211533;23;20020;-79
2024/02/09 00:28:18;;;;;;;9.48;3.03;;;8.00;99.90;;;;;;6183907;23;20044;-79
2024/02/09 00:30:47;;;;;;;6.25;2.53;;;8.00;99.90;;;;;;6183714;23;20044;-78
2024/02/09 00:33:16;;;;;;;11.70;3.00;;;7.00;99.90;;;;;;6181519;23;20017;-78
2024/02/09 00:35:46;;;;;;;5.63;2.40;;;8.20;99.90;;;;;;6184397;23;20009;-79
2024/02/09 00:38:20;;;;;;;8.43;2.75;;;8.00;99.90;;;;;;6183909;23;20020;-78
2024/02/09 00:40:51;;;;;;;6.53;2.55;;;8.00;99.90;;;;;;6160113;23;20044;-78
2024/02/09 00:43:22;;;;;;;6.20;3.13;;;8.10;99.90;;;;;;6183138;23;20080;-80
2024/02/09 00:45:54;;;;;;;9.63;3.20;;;8.00;99.90;;;;;;6182287;23;20044;-78
2024/02/09 00:48:26;;;;;;;6.63;2.65;;;8.00;99.90;;;;;;6207264;23;20051;-79
2024/02/09 00:50:55;;;;;;;7.30;2.13;;;8.10;99.90;;;;;;6208016;23;20040;-79
2024/02/09 00:53:49;;;;;;;7.70;2.58;;;8.20;99.90;;;;;;6181831;23;20036;-81
2024/02/09 00:56:19;;;;;;;10.05;1.90;;;8.10;99.90;;;;;;6115529;23;20023;-80
2024/02/09 00:58:50;;;;;;;;;;;8.10;99.90;;;;;;6139972;23;20047;-79
2024/02/09 01:01:20;;;;;;;4.85;2.58;;;8.30;99.90;;;;;;6181160;23;19991;-79
2024/02/09 01:03:49;;;;;;;5.93;2.17;;;8.10;99.90;;;;;;6182338;23;20013;-81
2024/02/09 01:06:21;;;;;;;8.65;2.20;;;8.10;99.90;;;;;;6180777;23;20092;-79
2024/02/09 01:08:50;;;;;;;8.40;2.47;;;8.20;99.90;;;;;;6182073;23;20015;-80
2024/02/09 01:11:21;;;;;;;5.63;2.35;;;8.30;99.90;;;;;;6205457;23;20017;-77
2024/02/09 02:46:16;;;;;;;6.72;1.95;;;7.80;99.90;;;;;;6303686;22;20344;-82
2024/02/09 03:05:40;;;;;;;6.55;2.35;;;7.80;99.90;;;;;;6255496;22;20041;-75
2024/02/09 03:08:11;;;;;;;10.80;2.83;;;7.80;99.90;;;;;;6282488;22;20027;-75
2024/02/09 03:11:00;;;;;;;6.75;2.33;;;7.70;99.90;;;;;;6282860;22;20023;-75
2024/02/09 03:13:32;;;;;;;5.60;2.08;;;7.70;99.90;;;;;;6282612;22;20060;-75
2024/02/09 03:16:03;;;;;;;5.35;1.63;;;7.70;99.90;;;;;;6282663;22;20027;-75
2024/02/09 03:18:32;;;;;;;5.45;1.90;;;7.60;99.90;;;;;;6282538;22;20102;-75
2024/02/09 03:21:05;;;;;;;;;;;7.60;99.90;;;;;;6259060;22;20396;-75
2024/02/09 03:23:36;;;;;;;5.70;1.77;;;7.60;99.90;;;;;;6283132;22;19914;-75
2024/02/09 03:26:07;;;;;;;5.68;1.98;;;7.50;99.90;;;;;;6279204;22;20528;-75
2024/02/09 03:28:38;;;;;;;7.32;2.17;;;7.50;99.90;;;;;;6283139;22;20019;-75
2024/02/09 03:31:08;;;;;;;5.95;2.38;;;7.50;99.90;;;;;;6283264;22;20102;-75
2024/02/09 03:33:42;;;;;;;5.13;2.38;;;7.40;99.90;;;;;;6282841;22;20103;-75
2024/02/09 03:36:12;;;;;;;4.95;2.08;;;7.40;99.90;;;;;;6282983;22;20026;-75
2024/02/09 03:38:43;;;;;;;5.65;1.60;;;7.40;99.90;;;;;;6283224;22;20023;-75
2024/02/09 03:41:12;;;;;;;8.15;2.35;;;7.30;99.90;;;;;;6283067;22;20019;-75
2024/02/09 03:43:41;;;;;;;9.70;2.83;;;7.30;99.90;;;;;;6310643;22;20011;-75
2024/02/09 03:46:10;;;;;;;5.80;2.30;;;7.30;99.90;;;;;;6282950;22;20026;-75
2024/02/09 03:48:39;;;;;;;5.82;2.13;;;7.20;99.90;;;;;;6311061;22;20020;-75
2024/02/09 03:51:08;;;;;;;11.68;3.58;;;7.20;99.90;;;;;;6284850;22;20047;-75
2024/02/09 03:53:43;;;;;;;6.38;2.45;;;7.20;99.90;;;;;;6284392;22;20064;-75
2024/02/09 03:56:13;;;;;;;14.05;4.30;;;7.20;99.90;;;;;;6284826;22;20019;-75
2024/02/09 03:58:45;;;;;;;12.35;5.35;;;7.20;99.90;;;;;;6284720;22;20027;-75
2024/02/09 04:01:15;;;;;;;15.10;6.13;;;7.20;99.90;;;;;;6231877;22;20441;-75
2024/02/09 04:03:44;;;;;;;14.23;6.35;;;7.20;99.90;;;;;;6312058;22;20086;-75
2024/02/09 04:06:14;;;;;;;11.95;5.00;;;7.20;99.90;;;;;;6284302;22;20459;-75
2024/02/09 04:08:45;;;;;;;9.88;3.90;;;7.10;99.90;;;;;;6283967;22;20050;-75
2024/02/09 04:11:23;;;;;;;8.68;3.22;;;7.20;99.90;;;;;;6283908;22;20360;-75
2024/02/09 04:13:54;;;;;;;9.82;3.22;;;7.10;99.90;;;;;;6284644;22;20441;-75
2024/02/09 04:16:22;;;;;;;7.38;3.28;;;7.10;99.90;;;;;;6258724;22;20019;-75
2024/02/09 04:18:51;;;;;;;7.38;2.60;;;7.10;99.90;;;;;;6284194;22;20333;-75
2024/02/09 04:21:20;;;;;;;4.20;2.20;;;7.10;99.90;;;;;;6258523;22;20015;-75
2024/02/09 04:23:49;;;;;;;9.98;3.60;;;7.00;99.90;;;;;;6283878;22;20023;-75
2024/02/09 04:26:21;;;;;;;9.68;2.90;;;7.10;99.90;;;;;;6280045;22;20027;-75
2024/02/09 04:28:51;;;;;;;9.18;2.60;;;7.00;99.90;;;;;;6284068;22;20030;-75
2024/02/09 04:31:21;;;;;;;9.05;2.85;;;7.00;99.90;;;;;;6283968;22;20026;-75
2024/02/09 04:33:49;;;;;;;9.18;2.67;;;7.00;99.90;;;;;;6283700;22;20023;-75
2024/02/09 04:36:19;;;;;;;6.80;2.60;;;7.00;99.90;;;;;;6283650;22;20028;-75
2024/02/09 04:38:48;;;;;;;8.35;2.25;;;7.00;99.90;;;;;;6284061;22;20050;-75
2024/02/09 04:41:20;;;;;;;7.35;2.15;;;7.00;99.90;;;;;;6283973;22;20431;-75
2024/02/09 04:43:50;;;;;;;6.25;2.47;;;7.00;99.90;;;;;;6283372;22;20406;-75
2024/02/09 04:46:23;;;;;;;10.75;2.83;;;6.90;99.90;;;;;;6283690;22;20019;-75
2024/02/09 04:48:52;;;;;;;7.32;2.88;;;6.90;99.90;;;;;;6283606;22;20092;-75
2024/02/09 04:51:22;;;;;;;9.25;2.63;;;6.90;99.90;;;;;;6215885;23;20079;-75
2024/02/09 04:53:51;;;;;;;6.68;2.97;;;6.90;99.90;;;;;;6215809;23;20454;-75
2024/02/09 04:56:30;;;;;;;8.85;2.88;;;6.90;99.90;;;;;;6191177;23;20024;-75
2024/02/09 04:58:59;;;;;;;6.00;2.97;;;6.90;99.90;;;;;;6216612;23;20024;-75
2024/02/09 05:01:28;;;;;;;8.90;3.08;;;6.90;99.90;;;;;;6190519;23;20028;-75
2024/02/09 05:04:02;;;;;;;7.45;2.60;;;6.90;99.90;;;;;;6216895;23;20052;-75
2024/02/09 05:06:31;;;;;;;6.93;2.58;;;6.90;99.90;;;;;;6190972;23;20082;-74
2024/02/09 05:09:03;;;;;;;9.95;3.25;;;6.90;99.90;;;;;;6191183;23;20017;-75
2024/02/09 05:11:35;;;;;;;11.63;3.10;;;6.90;99.90;;;;;;6191157;23;20021;-75
2024/02/09 05:14:06;;;;;;;6.75;3.00;;;6.90;99.90;;;;;;6191169;23;20480;-75
2024/02/09 05:16:40;;;;;;;8.07;4.55;;;6.90;99.90;;;;;;6216414;23;20390;-75
2024/02/09 05:19:11;;;;;;;10.60;3.97;;;6.90;99.90;;;;;;6191677;23;20078;-75
2024/02/09 05:21:43;;;;;;;8.70;3.72;;;6.90;99.90;;;;;;6191902;23;20024;-79
2024/02/09 05:24:14;;;;;;;8.15;3.70;;;6.90;99.90;;;;;;6241149;23;20036;-79
2024/02/09 05:26:45;;;;;;;16.30;3.92;;;6.80;99.90;;;;;;6214303;23;20027;-79
2024/02/09 05:29:15;;;;;;;9.00;3.72;;;6.90;99.90;;;;;;6294856;22;20011;-79
2024/02/09 05:31:46;;;;;;;10.30;3.78;;;6.80;99.90;;;;;;6307369;22;20042;-79
2024/02/09 05:34:18;;;;;;;8.45;3.47;;;7.00;99.90;;;;;;6306767;22;20023;-79
2024/02/09 05:36:48;;;;;;;9.32;2.90;;;6.90;99.90;;;;;;6308190;22;20369;-79
2024/02/09 05:39:18;;;;;;;11.02;3.30;;;6.90;99.90;;;;;;6308642;22;20018;-79
2024/02/09 05:41:49;;;;;;;11.00;3.55;;;6.80;99.90;;;;;;6307438;22;20003;-79
2024/02/09 05:44:19;;;;;;;10.13;2.35;;;6.80;99.90;;;;;;6281733;22;20022;-79
2024/02/09 05:46:48;;;;;;;8.77;3.45;;;6.80;99.90;;;;;;6281815;22;20003;-79
2024/02/09 05:49:17;;;;;;;9.70;3.25;;;6.70;99.90;;;;;;6307279;22;20023;-79
2024/02/09 05:51:47;;;;;;;10.85;3.70;;;6.70;99.90;;;;;;6307979;22;20231;-80
2024/02/09 05:54:16;;;;;;;10.05;3.33;;;6.90;99.90;;;;;;6305887;22;20019;-80
2024/02/09 05:56:49;;;;;;;5.82;2.78;;;6.70;99.90;;;;;;6333651;22;19998;-80
2024/02/09 05:59:22;;;;;;;8.93;3.30;;;6.80;99.90;;;;;;6306994;22;20014;-79
2024/02/09 06:01:52;;;;;;;9.52;3.55;;;6.80;99.90;;;;;;6306775;22;20015;-79
2024/02/09 06:04:22;;;;;;;11.60;4.03;;;6.70;99.90;;;;;;6305948;22;20309;-78
2024/02/09 06:06:53;;;;;;;10.93;4.50;;;6.70;99.90;;;;;;6332630;22;20005;-79
2024/02/09 06:09:24;;;;;;;10.88;4.55;;;6.70;99.90;;;;;;6306589;22;20042;-79
2024/02/09 06:33:19;;;;;;;12.52;3.22;;;6.60;99.90;;;;;;6031152;23;20124;-78
2024/02/09 06:35:58;;;;;;;7.65;3.63;;;6.70;99.90;;;;;;5970720;24;20044;-77
2024/02/09 06:38:31;;;;;;;9.13;3.40;;;6.70;99.90;;;;;;5987078;23;20024;-76
2024/02/09 06:41:05;;;;;;;6.32;2.88;;;6.80;99.90;;;;;;6004974;23;20003;-77
2024/02/09 06:43:35;;;;;;;7.43;3.00;;;6.80;99.90;;;;;;6002534;23;20075;-77
2024/02/09 06:46:04;;;;;;;7.55;2.85;;;6.80;99.90;;;;;;6026169;23;20103;-77
2024/02/09 06:48:37;;;;;;;8.70;3.38;;;6.90;99.90;;;;;;6027209;23;20060;-78
2024/02/09 06:51:11;;;;;;;9.45;3.42;;;6.90;99.90;;;;;;6057355;23;20099;-78
2024/02/09 06:53:45;;;;;;;8.63;4.10;;;7.00;99.90;;;;;;6027330;23;20023;-77
2024/02/09 06:56:19;;;;;;;8.30;3.30;;;6.90;99.90;;;;;;6058509;23;20102;-77
2024/02/09 06:58:52;;;;;;;9.68;3.30;;;6.90;99.90;;;;;;6123538;23;20027;-78
2024/02/09 07:01:31;;;;;;;7.60;3.50;;;6.80;99.90;;;;;;6173537;23;20032;-78
2024/02/09 07:04:06;;;;;;;8.40;3.40;;;7.00;99.90;;;;;;6152343;23;20038;-77
2024/02/09 07:06:41;;;;;;;20.80;8.18;;;7.10;99.90;;;;;;6113821;23;20452;-77
2024/02/09 07:09:18;;;;;;;21.55;11.63;;;7.10;99.90;;;;;;6088547;23;20022;-76
2024/02/09 07:12:05;;;;;;;15.77;6.28;;;7.20;99.90;;;;;;6024614;23;20024;-77
2024/02/09 07:14:35;;;;;;;11.77;5.90;;;7.30;99.90;;;;;;6055645;23;20025;-78
2024/02/09 07:17:12;;;;;;;9.23;4.38;;;7.60;99.90;;;;;;6085597;23;20052;-78
2024/02/09 07:19:50;;;;;;;20.98;11.82;;;7.50;99.90;;;;;;6061644;23;20099;-77
2024/02/09 07:22:35;;;;;;;40.38;23.75;;;7.70;99.90;;;;;;6060459;23;20018;-77
2024/02/09 07:25:13;;;;;;;26.40;16.47;;;7.80;99.90;;;;;;6082560;23;20023;-78
2024/02/09 07:28:18;;;;;;;19.55;8.00;;;7.80;99.90;;;;;;6082866;23;20326;-78
2024/02/09 07:34:31;;;;;;;9.45;3.38;;;8.00;99.90;;;;;;6096937;23;20113;-77
2024/02/09 07:37:58;;;;;;;7.00;3.15;;;8.00;99.90;;;;;;6146718;23;20028;-76
2024/02/09 07:44:24;;;;;;;9.23;4.80;;;8.20;99.90;;;;;;6282459;22;20018;-85
2024/02/09 07:47:49;;;;;;;13.52;5.10;;;8.60;99.90;;;;;;6126429;23;20061;-82
2024/02/09 07:50:57;;;;;;;12.30;5.22;;;8.50;99.90;;;;;;6126796;23;20025;-85
2024/02/09 07:57:26;;;;;;;14.13;6.18;;;8.00;99.90;;;;;;6010463;23;20024;-84
2024/02/09 08:00:26;;;;;;;16.88;6.70;;;8.30;99.90;;;;;;6007110;24;20028;-85
2024/02/09 08:03:05;;;;;;;10.00;4.93;;;8.80;99.90;;;;;;6006277;24;20080;-85
2024/02/09 08:10:09;;;;;;;13.13;5.80;;;8.90;99.90;;;;;;5979416;24;20130;-83
2024/02/09 08:13:23;;;;;;;8.32;4.45;;;8.90;99.90;;;;;;6058194;23;20069;-85
2024/02/09 08:16:56;;;;;;;10.55;3.88;;;9.20;99.90;;;;;;6014435;23;20019;-85
2024/02/09 08:19:26;;;;;;;9.07;3.22;;;9.20;99.90;;;;;;6005414;24;20020;-82
2024/02/09 08:22:12;;;;;;;8.63;4.07;;;9.30;99.90;;;;;;6005267;23;20028;-85
2024/02/09 08:24:46;;;;;;;6.35;3.42;;;9.30;99.90;;;;;;6005508;24;20028;-85
2024/02/09 08:27:16;;;;;;;12.35;3.47;;;9.50;99.90;;;;;;6011622;23;20021;-85
2024/02/09 08:29:55;;;;;;;8.23;3.60;;;9.30;99.90;;;;;;6038236;23;20023;-84
2024/02/09 08:32:27;;;;;;;8.63;4.03;;;10.40;99.90;;;;;;6062783;23;20020;-85
2024/02/09 08:35:07;;;;;;;9.52;2.83;;;9.50;99.90;;;;;;6060025;23;20027;-80
2024/02/09 08:37:39;;;;;;;10.65;3.92;;;9.70;99.90;;;;;;6058572;23;20025;-84
2024/02/09 08:40:14;;;;;;;14.05;4.20;;;9.70;99.90;;;;;;6141769;23;20082;-83
2024/02/09 08:42:51;;;;;;;7.75;3.70;;;10.00;99.90;;;;;;6138356;23;20017;-83
2024/02/09 08:45:23;;;;;;;10.27;3.88;;;10.00;99.90;;;;;;6208135;23;20078;-82
2024/02/09 08:48:26;;;;;;;10.43;3.08;;;10.10;99.90;;;;;;6148051;23;20046;-82
2024/02/09 08:51:03;;;;;;;12.90;4.07;;;10.20;99.90;;;;;;6148791;23;20135;-84
2024/02/09 08:53:44;;;;;;;10.27;3.60;;;10.20;99.90;;;;;;6123967;23;20072;-81
2024/02/09 08:56:30;;;;;;;7.57;3.45;;;10.20;99.90;;;;;;6146096;23;20017;-81
2024/02/09 09:01:49;;;;;;;10.38;3.63;;;10.40;99.90;;;;;;6211660;23;20020;-81
2024/02/09 09:04:24;;;;;;;8.05;3.05;;;10.30;99.90;;;;;;6181575;23;20017;-81
2024/02/09 09:10:13;;;;;;;7.68;3.47;;;10.10;99.90;;;;;;6181389;23;20063;-81
2024/02/09 09:12:59;;;;;;;10.27;3.60;;;10.60;99.90;;;;;;6206412;23;20100;-82
2024/02/09 09:16:26;;;;;;;9.07;3.38;;;10.30;99.90;;;;;;6117466;23;20029;-80
2024/02/09 09:19:00;;;;;;;9.40;3.03;;;10.70;99.90;;;;;;6116960;23;20082;-81
2024/02/09 09:21:41;;;;;;;7.57;3.20;;;10.60;99.90;;;;;;6116485;23;20042;-82
2024/02/09 09:24:29;;;;;;;8.57;4.20;;;10.40;99.90;;;;;;6117619;23;20086;-81
2024/02/09 09:27:21;;;;;;;7.15;2.47;;;9.60;99.90;;;;;;6062529;23;20025;-80
2024/02/09 09:30:11;;;;;;;7.23;2.70;;;10.50;99.90;;;;;;6117600;23;20043;-82
2024/02/09 09:32:57;;;;;;;6.50;2.45;;;10.00;99.90;;;;;;6118737;23;20026;-82
2024/02/09 09:35:41;;;;;;;12.05;3.17;;;10.30;99.90;;;;;;6152517;23;20085;-80
2024/02/09 09:38:18;;;;;;;10.07;2.88;;;10.20;99.90;;;;;;6178152;23;20021;-80
2024/02/09 09:41:19;;;;;;;7.00;3.35;;;10.20;99.90;;;;;;6130268;23;20022;-80
2024/02/09 09:44:05;;;;;;;7.60;2.90;;;10.00;99.90;;;;;;6119239;23;20022;-80
2024/02/09 09:46:45;;;;;;;8.60;3.25;;;10.10;99.90;;;;;;6177321;23;20014;-80
2024/02/09 09:49:23;;;;;;;8.60;3.20;;;10.00;99.90;;;;;;6153229;23;20045;-82
2024/02/09 09:52:04;;;;;;;9.23;3.42;;;10.00;99.90;;;;;;6149083;23;20018;-82
2024/02/09 09:54:35;;;;;;;9.43;3.35;;;10.00;99.90;;;;;;6101517;23;20009;-81
2024/02/09 09:57:14;;;;;;;7.38;3.40;;;10.10;99.90;;;;;;6123802;23;20022;-81
2024/02/09 10:02:49;;;;;;;6.63;3.40;;;10.10;99.90;;;;;;6114112;23;20027;-78
2024/02/09 10:05:19;;;;;;;9.98;3.55;;;10.20;99.90;;;;;;6078530;23;20365;-78
2024/02/09 10:07:48;;;;;;;6.55;3.15;;;10.20;99.90;;;;;;6086650;23;20082;-78
2024/02/09 10:10:37;;;;;;;11.10;3.45;;;10.30;99.90;;;;;;6059570;23;20038;-78
2024/02/09 10:13:11;;;;;;;9.60;3.55;;;10.20;99.90;;;;;;6068334;23;20387;-78
2024/02/09 10:15:47;;;;;;;10.10;3.22;;;10.30;99.90;;;;;;6110511;23;20018;-77
2024/02/09 10:18:26;;;;;;;11.50;4.05;;;10.30;99.90;;;;;;6076038;23;20022;-76
2024/02/09 10:20:58;;;;;;;12.50;4.00;;;10.40;99.90;;;;;;6087294;23;20022;-78
2024/02/09 10:23:30;;;;;;;9.50;3.90;;;10.30;99.90;;;;;;6087380;23;20109;-77
2024/02/09 10:26:12;;;;;;;8.63;3.67;;;10.50;99.90;;;;;;6108711;23;20018;-78
2024/02/09 10:28:45;;;;;;;12.30;4.55;;;10.60;99.90;;;;;;6134829;23;20032;-78
2024/02/09 10:31:22;;;;;;;10.25;3.80;;;10.70;99.90;;;;;;6135779;23;20022;-78
2024/02/09 10:33:56;;;;;;;13.80;4.90;;;10.80;99.90;;;;;;6133709;23;20018;-77
2024/02/09 10:36:29;;;;;;;12.13;4.78;;;10.90;99.90;;;;;;6061665;23;20022;-77
2024/02/09 10:38:59;;;;;;;;;;;10.90;99.90;;;;;;6081997;23;20022;-77
2024/02/09 10:41:33;;;;;;;12.43;5.78;;;11.10;99.90;;;;;;6142137;23;19916;-79
2024/02/09 10:44:08;;;;;;;15.75;5.30;;;11.10;99.90;;;;;;6221906;23;20084;-77
2024/02/09 10:46:39;;;;;;;11.57;4.35;;;11.20;99.90;;;;;;6231581;23;20016;-77
2024/02/09 10:49:10;;;;;;;12.05;5.72;;;11.20;99.90;;;;;;6259596;23;20023;-77
2024/02/09 10:51:47;;;;;;;14.15;4.15;;;11.30;99.90;;;;;;6205848;23;20107;-77
2024/02/09 10:54:27;;;;;;;12.20;5.45;;;11.30;99.90;;;;;;6287094;22;20016;-78
2024/02/09 10:57:01;;;;;;;9.23;3.63;;;11.40;99.90;;;;;;6271667;22;20038;-76
2024/02/09 10:59:38;;;;;;;10.65;4.20;;;11.50;99.90;;;;;;6318870;22;20011;-77
2024/02/09 11:02:23;;;;;;;13.50;4.03;;;11.70;99.90;;;;;;6296655;22;20030;-79
2024/02/09 11:04:54;;;;;;;8.60;3.35;;;11.80;99.90;;;;;;6297627;22;20029;-78
2024/02/09 11:07:24;;;;;;;10.40;3.35;;;11.90;99.90;;;;;;6298133;22;20066;-77
2024/02/09 11:09:54;;;;;;;11.48;3.10;;;12.00;99.90;;;;;;6293055;22;20172;-78
2024/02/09 11:12:23;;;;;;;11.70;3.45;;;12.10;99.90;;;;;;6295942;22;20023;-83
2024/02/09 11:15:31;;;;;;;10.00;3.05;;;12.20;99.90;;;;;;6227901;23;20044;-77
2024/02/09 11:18:03;;;;;;;7.72;2.50;;;12.40;99.90;;;;;;6232139;23;20047;-82
2024/02/09 11:20:38;;;;;;;6.72;2.15;;;12.40;99.90;;;;;;6232268;23;20032;-76
2024/02/09 11:23:10;;;;;;;4.50;2.13;;;12.50;99.90;;;;;;6161584;23;20025;-78
2024/02/09 11:26:07;;;;;;;5.85;2.47;;;12.70;99.90;;;;;;6229425;23;20096;-78
2024/02/09 11:28:49;;;;;;;6.68;2.20;;;12.80;99.90;;;;;;6240152;23;20021;-78
2024/02/09 11:31:28;;;;;;;8.32;2.60;;;12.60;99.90;;;;;;6263317;23;20024;-81
2024/02/09 11:34:09;;;;;;;7.55;2.42;;;12.70;99.90;;;;;;6276971;22;20082;-81
2024/02/09 11:36:42;;;;;;;7.35;1.83;;;12.80;99.90;;;;;;6354188;22;20041;-76
2024/02/09 11:39:16;;;;;;;7.25;2.53;;;12.80;99.90;;;;;;6327891;22;20087;-78
2024/02/09 11:42:11;;;;;;;12.65;7.18;;;12.90;99.90;;;;;;6355572;22;20019;-78
2024/02/09 11:44:54;;;;;;;11.45;3.03;;;12.90;99.90;;;;;;6326390;22;20507;-77
2024/02/09 11:47:30;;;;;;;5.13;2.05;;;12.90;99.90;;;;;;6327944;22;20026;-78
2024/02/09 11:50:03;;;;;;;7.18;2.15;;;13.10;99.90;;;;;;6325741;22;20038;-75
2024/02/09 11:52:37;;;;;;;11.70;1.85;;;13.20;99.90;;;;;;6322634;22;20023;-79
2024/02/09 11:55:22;;;;;;;8.75;2.25;;;13.20;99.90;;;;;;6327349;22;20081;-79
2024/02/09 11:57:55;;;;;;;3.67;1.42;;;13.20;99.90;;;;;;6323280;22;20014;-75
2024/02/09 12:00:25;;;;;;;5.18;2.78;;;13.10;99.90;;;;;;6320112;22;20029;-77
2024/02/09 12:03:04;;;;;;;5.65;2.47;;;13.20;99.90;;;;;;6327455;22;20041;-77
2024/02/09 12:05:38;;;;;;;4.35;1.70;;;13.20;99.90;;;;;;6300811;22;20026;-78
2024/02/09 12:08:08;;;;;;;6.97;2.30;;;13.20;99.90;;;;;;6326225;22;20101;-77
2024/02/09 12:10:40;;;;;;;6.43;2.60;;;13.20;99.90;;;;;;6330808;22;20029;-77
2024/02/09 12:13:10;;;;;;;7.07;1.98;;;13.10;99.90;;;;;;6321890;22;20057;-76
2024/02/09 12:15:40;;;;;;;3.63;1.88;;;13.20;99.90;;;;;;6328178;22;20451;-77
2024/02/09 12:22:10;;;;;;;8.38;2.08;;;13.30;99.90;;;;;;6327858;22;20041;-77
2024/02/09 12:25:28;;;;;;;4.20;2.13;;;13.20;99.90;;;;;;6227289;23;20017;-79
2024/02/09 12:28:01;;;;;;;5.30;1.77;;;13.30;99.90;;;;;;6144911;23;20018;-75
2024/02/09 12:30:31;;;;;;;6.07;1.92;;;13.30;99.90;;;;;;6109602;23;20075;-77
2024/02/09 12:33:19;;;;;;;6.45;1.80;;;13.40;99.90;;;;;;6111348;23;20026;-81
2024/02/09 12:36:07;;;;;;;5.47;1.83;;;13.40;99.90;;;;;;6111781;23;20023;-79
2024/02/09 12:38:44;;;;;;;8.57;2.78;;;13.40;99.90;;;;;;6106623;23;20022;-77
2024/02/09 12:41:24;;;;;;;12.85;2.30;;;13.40;99.90;;;;;;6109944;23;20085;-77
2024/02/09 12:43:59;;;;;;;8.13;2.53;;;13.40;99.90;;;;;;6158507;23;20026;-76
2024/02/09 12:46:33;;;;;;;8.13;2.15;;;13.40;99.90;;;;;;6138410;23;20050;-75
2024/02/09 12:49:08;;;;;;;7.95;2.20;;;13.50;99.90;;;;;;6142815;23;20045;-78
2024/02/09 12:51:44;;;;;;;6.95;2.10;;;13.50;99.90;;;;;;6095107;23;20419;-79
2024/02/09 12:54:21;;;;;;;7.82;2.33;;;13.90;99.90;;;;;;6142850;23;20026;-78
2024/02/09 12:56:53;;;;;;;7.78;2.45;;;13.40;99.90;;;;;;6142137;23;20041;-79
2024/02/09 12:59:24;;;;;;;10.20;2.17;;;13.50;99.90;;;;;;6197337;23;20017;-75
2024/02/09 13:02:15;;;;;;;6.53;1.70;;;13.50;99.90;;;;;;6175619;23;20036;-79
2024/02/09 13:04:50;;;;;;;8.18;2.17;;;13.50;99.90;;;;;;6198499;23;20122;-77
2024/02/09 13:07:24;;;;;;;8.27;2.22;;;13.60;99.90;;;;;;6177237;23;20021;-77
2024/02/09 13:10:10;;;;;;;7.72;1.60;;;13.60;99.90;;;;;;6189311;23;20017;-77
2024/02/09 13:12:40;;;;;;;5.78;1.52;;;13.60;99.90;;;;;;6199803;23;20021;-77
2024/02/09 13:15:12;;;;;;;5.70;2.13;;;13.60;99.90;;;;;;6194663;23;20016;-75
2024/02/09 13:17:41;;;;;;;7.38;1.88;;;13.60;99.90;;;;;;6257179;22;20050;-77
2024/02/09 13:20:18;;;;;;;;;;;13.70;99.90;;;;;;6289671;22;20031;-77
2024/02/09 13:23:23;;;;;;;7.28;2.00;;;13.80;99.90;;;;;;6257888;23;19922;-78
2024/02/09 13:32:41;;;;;;;4.93;1.65;;;13.90;99.90;;;;;;6262878;23;20047;-82
2024/02/09 13:35:20;;;;;;;7.28;2.13;;;13.10;99.90;;;;;;6262203;22;20034;-79
2024/02/09 13:37:58;;;;;;;7.35;2.10;;;13.80;99.90;;;;;;6268009;22;20020;-78
2024/02/09 13:40:42;;;;;;;5.50;2.83;;;13.70;99.90;;;;;;6271978;22;20043;-79
2024/02/09 13:43:18;;;;;;;6.35;1.90;;;13.80;99.90;;;;;;6274645;22;20024;-79
2024/02/09 13:45:59;;;;;;;5.90;1.98;;;13.80;99.90;;;;;;6223009;22;20025;-79
2024/02/09 13:48:41;;;;;;;9.18;2.70;;;13.70;99.90;;;;;;6297863;22;20034;-79
2024/02/09 13:52:05;;;;;;;4.28;1.80;;;13.70;99.90;;;;;;6269401;22;20041;-79
2024/02/09 13:55:02;;;;;;;6.88;1.73;;;13.60;99.90;;;;;;6294980;22;20034;-78
2024/02/09 13:57:59;;;;;;;8.68;2.75;;;13.50;99.90;;;;;;6272420;22;20023;-79
2024/02/09 14:00:54;;;;;;;8.73;2.78;;;13.40;99.90;;;;;;6205507;23;20016;-80
2024/02/09 14:03:33;;;;;;;18.48;6.65;;;13.50;99.90;;;;;;6238146;23;20011;-78
2024/02/09 14:06:19;;;;;;;8.10;3.80;;;13.50;99.90;;;;;;6241212;23;20038;-79
2024/02/09 14:09:03;;;;;;;26.17;10.45;;;13.50;99.90;;;;;;6266749;23;20026;-78
2024/02/09 14:11:44;;;;;;;18.30;7.18;;;13.50;99.90;;;;;;6240779;23;20070;-79
2024/02/09 14:14:22;;;;;;;24.27;9.40;;;13.40;99.90;;;;;;6240892;23;20024;-78
2024/02/09 14:16:55;;;;;;;21.33;7.47;;;13.40;99.90;;;;;;6237653;23;20027;-77
2024/02/09 14:19:24;;;;;;;29.90;10.32;;;13.40;99.90;;;;;;6235401;23;20016;-78
2024/02/09 14:21:53;;;;;;;13.85;4.65;;;13.30;99.90;;;;;;6237969;23;20020;-78
2024/02/09 14:24:38;;;;;;;11.40;3.60;;;13.30;99.90;;;;;;6265923;23;20473;-80
2024/02/09 14:27:11;;;;;;;5.75;1.90;;;13.30;99.90;;;;;;6242028;23;20020;-79
2024/02/09 14:29:45;;;;;;;13.07;2.22;;;13.30;99.90;;;;;;6182609;23;20352;-80
2024/02/09 14:38:36;;;;;;;6.03;2.08;;;13.30;99.90;;;;;;6151983;23;20078;-80
2024/02/09 14:41:25;;;;;;;11.02;2.22;;;13.50;99.90;;;;;;6151926;23;20021;-79
2024/02/09 14:44:04;;;;;;;12.05;2.88;;;13.20;99.90;;;;;;6129650;23;20028;-77
2024/02/09 14:47:03;;;;;;;8.77;2.13;;;13.10;99.90;;;;;;6174078;23;20022;-79
2024/02/09 14:50:32;;;;;;;9.93;3.03;;;13.20;99.90;;;;;;5978541;24;20024;-81
2024/02/09 14:53:08;;;;;;;6.18;2.50;;;12.90;99.90;;;;;;5953552;24;20051;-75
2024/02/09 14:55:39;;;;;;;13.90;5.07;;;13.10;99.90;;;;;;6001437;24;20027;-82
2024/02/09 14:58:29;;;;;;;8.50;2.92;;;13.10;99.90;;;;;;6000013;24;20024;-81
2024/02/09 15:01:09;;;;;;;47.45;27.65;;;13.00;99.90;;;;;;5997062;23;20083;-82
2024/02/09 15:03:51;;;;;;;11.60;3.42;;;12.90;99.90;;;;;;6089742;23;20022;-83
2024/02/09 15:07:16;;;;;;;7.57;2.47;;;13.00;99.90;;;;;;6107010;23;20018;-83
2024/02/09 15:10:04;;;;;;;8.25;1.90;;;12.90;99.90;;;;;;6201661;23;20052;-82
2024/02/09 15:12:43;;;;;;;4.00;2.05;;;12.90;99.90;;;;;;6178624;23;20040;-80
2024/02/09 15:15:22;;;;;;;7.43;2.03;;;12.90;99.90;;;;;;6156013;23;20033;-78
2024/02/09 15:18:00;;;;;;;5.18;1.98;;;12.80;99.90;;;;;;6181140;23;20021;-82
2024/02/09 15:20:50;;;;;;;15.60;3.00;;;12.80;99.90;;;;;;6200425;23;20422;-83
2024/02/09 15:23:37;;;;;;;;;;;12.30;99.90;;;;;;6130081;23;20008;-84
2024/02/09 15:26:17;;;;;;;9.10;2.65;;;12.80;99.90;;;;;;6180841;23;19920;-82
2024/02/09 15:28:54;;;;;;;6.45;2.05;;;12.80;99.90;;;;;;6179706;23;20025;-80
2024/02/09 15:31:24;;;;;;;9.55;3.63;;;12.70;99.90;;;;;;6222981;23;20096;-78
2024/02/09 15:33:58;;;;;;;10.90;4.15;;;12.70;99.90;;;;;;6232084;23;20048;-80
2024/02/09 15:36:32;;;;;;;11.60;3.78;;;12.20;99.90;;;;;;6162479;23;20063;-82
2024/02/09 15:39:58;;;;;;;5.97;2.33;;;12.60;99.90;;;;;;6066391;23;20003;-84
2024/02/09 15:42:42;;;;;;;5.32;2.67;;;12.50;99.90;;;;;;6037090;23;20052;-84
2024/02/09 15:45:23;;;;;;;9.00;2.65;;;12.30;99.90;;;;;;6012770;23;20438;-80
2024/02/09 15:52:23;;;;;;;8.38;2.20;;;12.50;99.90;;;;;;5992801;23;20025;-83
2024/02/09 15:55:08;;;;;;;7.78;2.65;;;12.50;99.90;;;;;;5966763;24;20032;-78
2024/02/09 15:57:41;;;;;;;9.55;2.85;;;12.50;99.90;;;;;;5995164;24;20375;-77
2024/02/09 16:00:14;;;;;;;9.15;2.70;;;12.50;99.90;;;;;;5995902;24;20112;-77
2024/02/09 16:02:44;;;;;;;7.35;2.20;;;12.40;99.90;;;;;;5999170;23;20031;-77
2024/02/09 16:05:14;;;;;;;9.48;3.08;;;12.50;99.90;;;;;;6046122;23;20027;-78
2024/02/09 16:07:45;;;;;;;8.93;2.90;;;12.40;99.90;;;;;;6028965;23;20047;-77
2024/02/09 16:10:17;;;;;;;12.15;3.05;;;12.30;99.90;;;;;;6082326;23;20049;-77
2024/02/09 16:12:50;;;;;;;10.38;3.22;;;12.30;99.90;;;;;;6091137;23;20474;-76
2024/02/09 16:15:21;;;;;;;11.52;3.30;;;12.30;99.90;;;;;;6159783;23;20061;-76
2024/02/09 16:17:51;;;;;;;7.88;3.25;;;12.20;99.90;;;;;;6134418;23;20094;-75
2024/02/09 16:20:24;;;;;;;6.88;3.17;;;12.10;99.90;;;;;;6184444;23;20016;-76
2024/02/09 16:22:55;;;;;;;7.68;3.05;;;12.10;99.90;;;;;;6183258;23;20359;-75
2024/02/09 16:25:24;;;;;;;11.93;3.58;;;12.10;99.90;;;;;;6159003;23;20022;-75
2024/02/09 16:27:55;;;;;;;9.18;3.63;;;12.10;99.90;;;;;;6166663;23;20025;-75
2024/02/09 16:30:26;;;;;;;8.77;3.15;;;12.10;99.90;;;;;;6219615;23;20465;-75
2024/02/09 16:32:54;;;;;;;7.90;2.97;;;12.10;99.90;;;;;;6249296;23;20024;-75
2024/02/09 16:35:27;;;;;;;16.02;4.55;;;12.00;99.90;;;;;;6237625;23;20020;-75
2024/02/09 16:37:57;;;;;;;7.33;3.40;;;12.00;99.90;;;;;;6250151;23;20024;-75